createdAt,value
2023-02-17T00:00:00.603Z,96514.38
2023-02-17T00:05:02.943Z,96506.59
2023-02-17T00:10:05.426Z,96508.16
2023-02-17T00:15:08.065Z,96511.16
2023-02-17T00:20:10.416Z,96508.97
2023-02-17T00:25:12.769Z,96501.09
2023-02-17T00:30:15.158Z,96499.59
2023-02-17T00:35:17.502Z,96498.91
2023-02-17T00:40:20.258Z,96509.38
2023-02-17T00:45:22.623Z,96505.00
2023-02-17T00:50:24.962Z,96502.34
2023-02-17T00:55:27.818Z,96499.88
2023-02-17T01:00:30.187Z,96496.28
2023-02-17T01:05:32.550Z,96498.53
2023-02-17T01:10:34.987Z,96500.56
2023-02-17T01:15:37.463Z,96500.03
2023-02-17T01:20:39.777Z,96509.47
2023-02-17T01:25:42.162Z,96495.75
2023-02-17T01:30:44.814Z,96482.94
2023-02-17T01:35:47.541Z,96481.53
2023-02-17T01:40:50.942Z,96474.22
2023-02-17T01:45:53.218Z,96489.09
2023-02-17T01:50:55.627Z,96478.59
2023-02-17T01:55:58.053Z,96484.06
2023-02-17T02:01:00.448Z,96472.88
2023-02-17T02:06:03.196Z,96472.97
2023-02-17T02:11:05.712Z,96465.59
2023-02-17T02:16:08.295Z,96468.25
2023-02-17T02:21:10.853Z,96474.91
2023-02-17T02:26:13.271Z,96477.34
2023-02-17T02:31:15.628Z,96487.09
2023-02-17T02:36:17.979Z,96477.72
2023-02-17T02:41:20.643Z,96481.28
2023-02-17T02:46:23.107Z,96480.97
2023-02-17T02:51:25.418Z,96477.41
2023-02-17T02:56:27.789Z,96467.91
2023-02-17T03:01:30.571Z,96464.47
2023-02-17T03:06:33.119Z,96457.09
2023-02-17T03:11:35.425Z,96455.78
2023-02-17T03:16:37.773Z,96443.19
2023-02-17T03:21:40.067Z,96443.44
2023-02-17T03:26:42.391Z,96436.56
2023-02-17T03:31:44.824Z,96431.78
2023-02-17T03:36:47.282Z,96435.00
2023-02-17T03:41:51.772Z,96433.00
2023-02-17T03:46:54.044Z,96421.53
2023-02-17T03:51:58.040Z,96415.72
2023-02-17T03:57:01.127Z,96427.13
2023-02-17T04:02:03.415Z,96420.94
2023-02-17T04:07:05.717Z,96424.81
2023-02-17T04:12:08.046Z,96423.88
2023-02-17T04:17:10.492Z,96417.03
2023-02-17T04:22:13.082Z,96411.94
2023-02-17T04:27:15.804Z,96405.25
2023-02-17T04:32:18.192Z,96410.06
2023-02-17T04:37:20.489Z,96410.72
2023-02-17T04:42:22.788Z,96407.28
2023-02-17T04:47:25.164Z,96406.50
2023-02-17T04:52:27.618Z,96402.75
2023-02-17T04:57:30.070Z,96399.63
2023-02-17T05:02:32.502Z,96384.13
2023-02-17T05:07:34.935Z,96397.47
2023-02-17T05:12:37.341Z,96385.00
2023-02-17T05:17:39.783Z,96378.53
2023-02-17T05:22:42.093Z,96373.97
2023-02-17T05:27:44.510Z,96378.75
2023-02-17T05:32:46.948Z,96374.03
2023-02-17T05:37:49.303Z,96383.91
2023-02-17T05:42:51.651Z,96380.97
2023-02-17T05:47:54.014Z,96385.75
2023-02-17T05:52:56.595Z,96383.09
2023-02-17T05:57:59.016Z,96383.09
2023-02-17T06:03:01.400Z,96385.06
2023-02-17T06:08:03.725Z,96399.38
2023-02-17T06:13:06.253Z,96393.75
2023-02-17T06:18:08.651Z,96398.06
2023-02-17T06:23:11.707Z,96406.50
2023-02-17T06:28:14.184Z,96413.47
2023-02-17T06:33:16.598Z,96417.75
2023-02-17T06:38:18.979Z,96421.00
2023-02-17T06:43:21.369Z,96420.06
2023-02-17T06:48:23.695Z,96427.69
2023-02-17T06:53:26.048Z,96424.59
2023-02-17T06:58:28.427Z,96419.44
2023-02-17T07:03:31.033Z,96418.31
2023-02-17T07:08:34.152Z,96406.66
2023-02-17T07:13:36.559Z,96399.56
2023-02-17T07:18:38.875Z,96414.22
2023-02-17T07:23:41.330Z,96411.97
2023-02-17T07:28:44.486Z,96413.31
2023-02-17T07:33:48.128Z,96414.19
2023-02-17T07:38:50.422Z,96417.19
2023-02-17T07:43:52.857Z,96419.06
2023-02-17T07:48:55.720Z,96419.09
2023-02-17T07:53:58.044Z,96414.84
2023-02-17T07:59:00.384Z,96427.88
2023-02-17T08:04:02.730Z,96419.88
2023-02-17T08:09:22.833Z,96417.88
2023-02-17T08:14:25.406Z,96427.09
2023-02-17T08:19:36.696Z,96424.66
2023-02-17T08:24:45.391Z,96424.06
2023-02-17T08:29:47.738Z,96428.63
2023-02-17T08:34:50.144Z,96436.09
2023-02-17T08:39:52.440Z,96440.44
2023-02-17T08:44:55.000Z,96434.47
2023-02-17T08:49:57.419Z,96432.66
2023-02-17T08:55:00.146Z,96438.03
2023-02-17T09:00:04.224Z,96457.44
2023-02-17T09:05:07.857Z,96448.44
2023-02-17T09:10:10.291Z,96460.41
2023-02-17T09:15:12.605Z,96457.22
2023-02-17T09:20:24.553Z,96474.47
2023-02-17T09:25:28.013Z,96455.63
2023-02-17T09:30:31.060Z,96463.19
2023-02-17T09:35:33.670Z,96458.81
2023-02-17T09:40:36.054Z,96454.56
2023-02-17T09:45:38.416Z,96457.34
2023-02-17T09:50:40.916Z,96451.56
2023-02-17T09:55:43.260Z,96456.78
2023-02-17T10:00:45.564Z,96457.22
2023-02-17T10:05:47.917Z,96461.38
2023-02-17T10:10:50.358Z,96458.94
2023-02-17T10:15:52.990Z,96440.09
2023-02-17T10:20:56.215Z,96441.97
2023-02-17T10:25:59.056Z,96461.09
2023-02-17T10:31:02.044Z,96450.94
2023-02-17T10:36:04.620Z,96429.34
2023-02-17T10:41:07.156Z,96441.78
2023-02-17T10:46:09.996Z,96431.56
2023-02-17T10:51:12.493Z,96435.56
2023-02-17T10:56:14.902Z,96430.47
2023-02-17T11:01:17.205Z,96427.22
2023-02-17T11:06:19.784Z,96427.94
2023-02-17T11:11:22.197Z,96418.88
2023-02-17T11:16:24.555Z,96411.41
2023-02-17T11:21:26.884Z,96407.84
2023-02-17T11:26:29.242Z,96399.00
2023-02-17T11:31:31.699Z,96407.59
2023-02-17T11:36:34.116Z,96391.06
2023-02-17T11:41:36.960Z,96391.16
2023-02-17T11:46:39.409Z,96379.31
2023-02-17T11:51:42.065Z,96367.97
2023-02-17T11:56:44.701Z,96372.72
2023-02-17T12:01:47.370Z,96371.38
2023-02-17T12:06:49.700Z,96347.47
2023-02-17T12:11:52.124Z,96351.09
2023-02-17T12:16:54.434Z,96356.41
2023-02-17T12:21:56.758Z,96354.84
2023-02-17T12:26:59.145Z,96356.13
2023-02-17T12:32:01.616Z,96356.25
2023-02-17T12:37:04.030Z,96339.47
2023-02-17T12:42:06.601Z,96332.34
2023-02-17T12:47:09.010Z,96344.75
2023-02-17T12:52:11.481Z,96351.38
2023-02-17T12:57:13.875Z,96357.66
2023-02-17T13:02:16.269Z,96348.50
2023-02-17T13:07:21.053Z,96350.72
2023-02-17T13:12:23.642Z,96345.28
2023-02-17T13:17:25.956Z,96351.72
2023-02-17T13:22:28.745Z,96360.19
2023-02-17T13:27:34.498Z,96349.38
2023-02-17T13:32:36.912Z,96347.78
2023-02-17T13:37:39.229Z,96347.50
2023-02-17T13:42:41.692Z,96340.59
2023-02-17T13:47:44.028Z,96353.78
2023-02-17T13:52:46.366Z,96332.81
2023-02-17T13:57:48.677Z,96343.34
2023-02-17T14:02:51.139Z,96343.63
2023-02-17T14:07:53.524Z,96340.91
2023-02-17T14:12:55.906Z,96353.34
2023-02-17T14:17:58.233Z,96362.50
2023-02-17T14:23:04.144Z,96353.31
2023-02-17T14:28:06.796Z,96358.16
2023-02-17T14:33:09.217Z,96364.63
2023-02-17T14:38:11.675Z,96354.41
2023-02-17T14:43:14.112Z,96356.56
2023-02-17T14:48:16.528Z,96369.78
2023-02-17T14:53:18.973Z,96362.50
2023-02-17T14:58:21.320Z,96366.03
2023-02-17T15:03:23.758Z,96379.00
2023-02-17T15:08:26.348Z,96378.72
2023-02-17T15:13:28.675Z,96374.41
2023-02-17T15:18:31.186Z,96383.00
2023-02-17T15:23:33.576Z,96373.03
2023-02-17T15:28:35.937Z,96366.56
2023-02-17T15:33:38.303Z,96358.47
2023-02-17T15:38:40.600Z,96347.41
2023-02-17T15:43:42.947Z,96347.69
2023-02-17T15:48:45.264Z,96332.88
2023-02-17T15:53:47.544Z,96340.97
2023-02-17T15:58:49.969Z,96348.50
2023-02-17T16:03:52.569Z,96342.59
2023-02-17T16:08:54.962Z,96346.63
2023-02-17T16:13:57.255Z,96355.22
2023-02-17T16:18:59.584Z,96355.69
2023-02-17T16:24:01.899Z,96342.47
2023-02-17T16:29:04.526Z,96351.03
2023-02-17T16:34:06.996Z,96339.69
2023-02-17T16:39:09.354Z,96359.31
2023-02-17T16:44:11.737Z,96363.00
2023-02-17T16:49:14.067Z,96368.34
2023-02-17T16:54:16.403Z,96364.75
2023-02-17T16:59:18.738Z,96355.28
2023-02-17T17:04:21.253Z,96375.72
2023-02-17T17:09:23.964Z,96381.56
2023-02-17T17:14:26.276Z,96377.50
2023-02-17T17:19:28.633Z,96380.19
2023-02-17T17:24:31.003Z,96375.84
2023-02-17T17:29:33.424Z,96375.25
2023-02-17T17:34:35.923Z,96376.31
2023-02-17T17:39:39.804Z,96396.91
2023-02-17T17:44:42.072Z,96384.16
2023-02-17T17:49:44.526Z,96397.84
2023-02-17T17:54:46.894Z,96389.03
2023-02-17T17:59:49.181Z,96390.28
2023-02-17T18:04:51.871Z,96371.94
2023-02-17T18:09:54.366Z,96368.44
2023-02-17T18:14:57.106Z,96373.84
2023-02-17T18:19:59.475Z,96359.28
2023-02-17T18:25:01.893Z,96360.34
2023-02-17T18:30:04.276Z,96368.63
2023-02-17T18:35:06.937Z,96363.56
2023-02-17T18:40:12.393Z,96380.28
2023-02-17T18:45:14.836Z,96369.50
2023-02-17T18:50:17.356Z,96371.41
2023-02-17T18:55:19.824Z,96367.06
2023-02-17T19:00:22.285Z,96362.28
2023-02-17T19:05:24.645Z,96385.16
2023-02-17T19:10:26.944Z,96377.09
2023-02-17T19:15:29.635Z,96360.47
2023-02-17T19:20:31.971Z,96357.81
2023-02-17T19:25:34.399Z,96375.50
2023-02-17T19:30:36.733Z,96382.50
2023-02-17T19:35:39.064Z,96369.44
2023-02-17T19:40:41.456Z,96355.00
2023-02-17T19:45:43.862Z,96361.25
2023-02-17T19:50:46.195Z,96369.28
2023-02-17T19:55:48.479Z,96368.16
2023-02-17T20:00:50.810Z,96381.13
2023-02-17T20:05:53.184Z,96387.41
2023-02-17T20:10:55.590Z,96381.00
2023-02-17T20:15:57.913Z,96399.47
2023-02-17T20:21:00.232Z,96408.25
2023-02-17T20:26:02.605Z,96410.03
2023-02-17T20:31:05.619Z,96430.41
2023-02-17T20:36:08.650Z,96444.00
2023-02-17T20:41:11.388Z,96453.91
2023-02-17T20:46:13.863Z,96455.34
2023-02-17T20:51:16.194Z,96466.09
2023-02-17T20:56:18.909Z,96474.16
2023-02-17T21:01:21.221Z,96478.78
2023-02-17T21:06:23.529Z,96473.34
2023-02-17T21:11:25.831Z,96468.88
2023-02-17T21:16:28.198Z,96462.66
2023-02-17T21:21:30.771Z,96464.63
2023-02-17T21:26:33.127Z,96451.72
2023-02-17T21:31:36.124Z,96468.88
2023-02-17T21:36:38.492Z,96465.47
2023-02-17T21:41:41.113Z,96455.50
2023-02-17T21:46:44.097Z,96468.44
2023-02-17T21:51:46.656Z,96460.44
2023-02-17T21:56:48.981Z,96468.78
2023-02-17T22:01:52.126Z,96470.41
2023-02-17T22:06:54.418Z,96457.50
2023-02-17T22:11:56.788Z,96465.50
2023-02-17T22:16:59.115Z,96469.91
2023-02-17T22:22:01.462Z,96474.47
2023-02-17T22:27:03.772Z,96485.50
2023-02-17T22:32:06.332Z,96472.84
2023-02-17T22:37:08.752Z,96467.69
2023-02-17T22:42:11.098Z,96463.09
2023-02-17T22:47:14.411Z,96477.84
2023-02-17T22:52:16.724Z,96487.28
2023-02-17T22:57:19.072Z,96492.69
2023-02-17T23:02:21.580Z,96488.34
2023-02-17T23:07:24.474Z,96490.97
2023-02-17T23:12:27.463Z,96496.31
2023-02-17T23:17:49.975Z,96490.44
2023-02-17T23:22:52.282Z,96501.03
2023-02-17T23:27:54.614Z,96500.69
2023-02-17T23:32:57.190Z,96504.91
2023-02-17T23:38:00.782Z,96511.78
2023-02-17T23:43:03.130Z,96500.66
2023-02-17T23:48:05.654Z,96493.44
2023-02-17T23:53:08.035Z,96503.44
2023-02-17T23:58:10.518Z,96510.34
